sensor_id;sensor_type;location;lat;lon;timestamp;P1;durP1;ratioP1;P2;durP2;ratioP2
3771;SDS011;1901;48.172;12.824;2023-06-10T00:01:29;21.57;;;12.53;;
3771;SDS011;1901;48.172;12.824;2023-06-10T00:03:56;17.93;;;12.43;;
3771;SDS011;1901;48.172;12.824;2023-06-10T00:06:23;14.97;;;11.57;;
3771;SDS011;1901;48.172;12.824;2023-06-10T00:08:50;16.87;;;11.00;;
3771;SDS011;1901;48.172;12.824;2023-06-10T00:11:18;12.80;;;11.23;;
3771;SDS011;1901;48.172;12.824;2023-06-10T00:13:46;14.83;;;11.43;;
3771;SDS011;1901;48.172;12.824;2023-06-10T00:16:13;11.17;;;9.97;;
3771;SDS011;1901;48.172;12.824;2023-06-10T00:18:44;13.47;;;11.30;;
3771;SDS011;1901;48.172;12.824;2023-06-10T00:21:12;13.43;;;11.30;;
3771;SDS011;1901;48.172;12.824;2023-06-10T00:23:39;13.87;;;11.77;;
3771;SDS011;1901;48.172;12.824;2023-06-10T00:26:06;18.53;;;13.43;;
3771;SDS011;1901;48.172;12.824;2023-06-10T00:28:33;14.83;;;10.90;;
3771;SDS011;1901;48.172;12.824;2023-06-10T00:31:00;14.60;;;11.97;;
3771;SDS011;1901;48.172;12.824;2023-06-10T00:33:29;17.20;;;10.80;;
3771;SDS011;1901;48.172;12.824;2023-06-10T00:35:57;16.97;;;11.43;;
3771;SDS011;1901;48.172;12.824;2023-06-10T00:38:24;12.50;;;11.20;;
3771;SDS011;1901;48.172;12.824;2023-06-10T00:40:52;17.70;;;12.47;;
3771;SDS011;1901;48.172;12.824;2023-06-10T00:43:19;16.03;;;12.70;;
3771;SDS011;1901;48.172;12.824;2023-06-10T00:45:46;15.00;;;13.40;;
3771;SDS011;1901;48.172;12.824;2023-06-10T00:48:13;16.70;;;13.63;;
3771;SDS011;1901;48.172;12.824;2023-06-10T00:50:40;18.30;;;13.30;;
3771;SDS011;1901;48.172;12.824;2023-06-10T00:53:08;18.50;;;13.47;;
3771;SDS011;1901;48.172;12.824;2023-06-10T00:55:36;16.43;;;12.23;;
3771;SDS011;1901;48.172;12.824;2023-06-10T00:58:03;15.60;;;11.93;;
3771;SDS011;1901;48.172;12.824;2023-06-10T01:00:31;14.47;;;11.83;;
3771;SDS011;1901;48.172;12.824;2023-06-10T01:02:58;15.90;;;12.13;;
3771;SDS011;1901;48.172;12.824;2023-06-10T01:05:25;15.93;;;12.63;;
3771;SDS011;1901;48.172;12.824;2023-06-10T01:07:59;16.87;;;13.13;;
3771;SDS011;1901;48.172;12.824;2023-06-10T01:10:32;21.13;;;12.30;;
3771;SDS011;1901;48.172;12.824;2023-06-10T01:13:01;15.13;;;13.10;;
3771;SDS011;1901;48.172;12.824;2023-06-10T01:15:29;16.97;;;13.50;;
3771;SDS011;1901;48.172;12.824;2023-06-10T01:17:57;15.13;;;12.40;;
3771;SDS011;1901;48.172;12.824;2023-06-10T01:20:25;21.43;;;12.40;;
3771;SDS011;1901;48.172;12.824;2023-06-10T01:22:54;14.50;;;12.80;;
3771;SDS011;1901;48.172;12.824;2023-06-10T01:25:22;14.37;;;11.57;;
3771;SDS011;1901;48.172;12.824;2023-06-10T01:27:52;16.30;;;12.43;;
3771;SDS011;1901;48.172;12.824;2023-06-10T01:30:20;12.97;;;11.63;;
3771;SDS011;1901;48.172;12.824;2023-06-10T01:32:50;18.03;;;12.50;;
3771;SDS011;1901;48.172;12.824;2023-06-10T01:35:18;13.67;;;12.20;;
3771;SDS011;1901;48.172;12.824;2023-06-10T01:37:48;18.13;;;12.13;;
3771;SDS011;1901;48.172;12.824;2023-06-10T01:40:17;19.40;;;13.60;;
3771;SDS011;1901;48.172;12.824;2023-06-10T01:42:44;14.50;;;12.80;;
3771;SDS011;1901;48.172;12.824;2023-06-10T01:45:11;16.33;;;13.73;;
3771;SDS011;1901;48.172;12.824;2023-06-10T01:47:38;14.30;;;12.80;;
3771;SDS011;1901;48.172;12.824;2023-06-10T01:50:06;14.30;;;12.70;;
3771;SDS011;1901;48.172;12.824;2023-06-10T01:52:33;13.90;;;12.30;;
3771;SDS011;1901;48.172;12.824;2023-06-10T01:55:00;26.43;;;13.43;;
3771;SDS011;1901;48.172;12.824;2023-06-10T01:57:29;17.87;;;14.17;;
3771;SDS011;1901;48.172;12.824;2023-06-10T01:59:56;17.50;;;13.67;;
3771;SDS011;1901;48.172;12.824;2023-06-10T02:02:23;15.43;;;13.73;;
3771;SDS011;1901;48.172;12.824;2023-06-10T02:04:50;15.77;;;13.00;;
3771;SDS011;1901;48.172;12.824;2023-06-10T02:07:17;16.00;;;12.77;;
3771;SDS011;1901;48.172;12.824;2023-06-10T02:09:44;15.87;;;12.90;;
3771;SDS011;1901;48.172;12.824;2023-06-10T02:12:11;15.77;;;12.80;;
3771;SDS011;1901;48.172;12.824;2023-06-10T02:14:40;15.50;;;12.70;;
3771;SDS011;1901;48.172;12.824;2023-06-10T02:17:07;18.90;;;13.50;;
3771;SDS011;1901;48.172;12.824;2023-06-10T02:19:37;16.60;;;13.77;;
3771;SDS011;1901;48.172;12.824;2023-06-10T02:22:07;16.80;;;14.20;;
3771;SDS011;1901;48.172;12.824;2023-06-10T02:24:35;17.70;;;14.40;;
3771;SDS011;1901;48.172;12.824;2023-06-10T02:27:03;15.17;;;13.13;;
3771;SDS011;1901;48.172;12.824;2023-06-10T02:29:31;21.87;;;15.77;;
3771;SDS011;1901;48.172;12.824;2023-06-10T02:32:00;18.10;;;15.40;;
3771;SDS011;1901;48.172;12.824;2023-06-10T02:34:27;18.53;;;14.50;;
3771;SDS011;1901;48.172;12.824;2023-06-10T02:36:54;16.07;;;12.67;;
3771;SDS011;1901;48.172;12.824;2023-06-10T02:39:21;17.23;;;14.17;;
3771;SDS011;1901;48.172;12.824;2023-06-10T02:41:49;23.67;;;14.90;;
3771;SDS011;1901;48.172;12.824;2023-06-10T02:44:17;18.53;;;14.97;;
3771;SDS011;1901;48.172;12.824;2023-06-10T02:46:45;18.87;;;15.60;;
3771;SDS011;1901;48.172;12.824;2023-06-10T02:49:13;21.77;;;15.90;;
3771;SDS011;1901;48.172;12.824;2023-06-10T02:51:41;18.30;;;15.13;;
3771;SDS011;1901;48.172;12.824;2023-06-10T02:54:08;22.80;;;16.50;;
3771;SDS011;1901;48.172;12.824;2023-06-10T02:56:35;23.83;;;17.40;;
3771;SDS011;1901;48.172;12.824;2023-06-10T02:59:02;22.77;;;18.43;;
3771;SDS011;1901;48.172;12.824;2023-06-10T03:01:32;22.83;;;16.60;;
3771;SDS011;1901;48.172;12.824;2023-06-10T03:04:02;22.93;;;18.10;;
3771;SDS011;1901;48.172;12.824;2023-06-10T03:06:30;23.93;;;17.33;;
3771;SDS011;1901;48.172;12.824;2023-06-10T03:08:59;24.87;;;17.87;;
3771;SDS011;1901;48.172;12.824;2023-06-10T03:11:26;28.30;;;18.50;;
3771;SDS011;1901;48.172;12.824;2023-06-10T03:13:53;26.23;;;19.43;;
3771;SDS011;1901;48.172;12.824;2023-06-10T03:16:20;22.97;;;17.13;;
3771;SDS011;1901;48.172;12.824;2023-06-10T03:18:48;31.07;;;17.70;;
3771;SDS011;1901;48.172;12.824;2023-06-10T03:21:15;23.07;;;17.90;;
3771;SDS011;1901;48.172;12.824;2023-06-10T03:23:44;24.77;;;18.47;;
3771;SDS011;1901;48.172;12.824;2023-06-10T03:26:11;18.37;;;16.30;;
3771;SDS011;1901;48.172;12.824;2023-06-10T03:28:39;24.27;;;18.40;;
3771;SDS011;1901;48.172;12.824;2023-06-10T03:31:06;25.00;;;16.57;;
3771;SDS011;1901;48.172;12.824;2023-06-10T03:33:34;23.90;;;16.50;;
3771;SDS011;1901;48.172;12.824;2023-06-10T03:36:01;28.70;;;17.43;;
3771;SDS011;1901;48.172;12.824;2023-06-10T03:38:28;36.40;;;18.57;;
3771;SDS011;1901;48.172;12.824;2023-06-10T03:40:56;24.50;;;18.00;;
3771;SDS011;1901;48.172;12.824;2023-06-10T03:43:23;21.50;;;15.17;;
3771;SDS011;1901;48.172;12.824;2023-06-10T03:45:50;23.37;;;18.13;;
3771;SDS011;1901;48.172;12.824;2023-06-10T03:48:18;24.07;;;16.10;;
3771;SDS011;1901;48.172;12.824;2023-06-10T03:50:45;23.13;;;16.73;;
3771;SDS011;1901;48.172;12.824;2023-06-10T03:53:15;19.00;;;14.60;;
3771;SDS011;1901;48.172;12.824;2023-06-10T03:55:42;22.20;;;14.83;;
3771;SDS011;1901;48.172;12.824;2023-06-10T03:58:11;20.83;;;15.87;;
3771;SDS011;1901;48.172;12.824;2023-06-10T04:00:39;20.40;;;15.50;;
3771;SDS011;1901;48.172;12.824;2023-06-10T04:03:07;24.70;;;15.30;;
3771;SDS011;1901;48.172;12.824;2023-06-10T04:05:39;25.40;;;15.00;;
3771;SDS011;1901;48.172;12.824;2023-06-10T04:08:07;13.80;;;11.83;;
3771;SDS011;1901;48.172;12.824;2023-06-10T04:10:34;16.47;;;12.80;;
3771;SDS011;1901;48.172;12.824;2023-06-10T04:13:01;15.20;;;12.07;;
3771;SDS011;1901;48.172;12.824;2023-06-10T04:15:30;12.40;;;11.13;;
3771;SDS011;1901;48.172;12.824;2023-06-10T04:17:58;12.17;;;10.87;;
3771;SDS011;1901;48.172;12.824;2023-06-10T04:20:26;10.13;;;9.13;;
3771;SDS011;1901;48.172;12.824;2023-06-10T04:22:53;10.30;;;8.67;;
3771;SDS011;1901;48.172;12.824;2023-06-10T04:25:20;12.37;;;9.43;;
3771;SDS011;1901;48.172;12.824;2023-06-10T04:27:49;10.37;;;9.27;;
3771;SDS011;1901;48.172;12.824;2023-06-10T04:30:16;13.60;;;9.17;;
3771;SDS011;1901;48.172;12.824;2023-06-10T04:32:45;10.50;;;9.57;;
3771;SDS011;1901;48.172;12.824;2023-06-10T04:35:13;12.53;;;10.30;;
3771;SDS011;1901;48.172;12.824;2023-06-10T04:37:40;11.87;;;10.67;;
3771;SDS011;1901;48.172;12.824;2023-06-10T04:40:07;13.07;;;11.60;;
3771;SDS011;1901;48.172;12.824;2023-06-10T04:42:35;11.70;;;9.53;;
3771;SDS011;1901;48.172;12.824;2023-06-10T04:45:03;11.93;;;9.10;;
3771;SDS011;1901;48.172;12.824;2023-06-10T04:47:30;11.73;;;10.30;;
3771;SDS011;1901;48.172;12.824;2023-06-10T04:50:00;11.00;;;10.00;;
3771;SDS011;1901;48.172;12.824;2023-06-10T04:52:27;11.73;;;9.83;;
3771;SDS011;1901;48.172;12.824;2023-06-10T04:54:54;12.97;;;11.57;;
3771;SDS011;1901;48.172;12.824;2023-06-10T04:57:23;12.90;;;11.60;;
3771;SDS011;1901;48.172;12.824;2023-06-10T04:59:52;12.30;;;10.80;;
3771;SDS011;1901;48.172;12.824;2023-06-10T05:02:19;12.63;;;11.43;;
3771;SDS011;1901;48.172;12.824;2023-06-10T05:04:46;11.37;;;10.30;;
3771;SDS011;1901;48.172;12.824;2023-06-10T05:07:15;11.90;;;10.73;;
3771;SDS011;1901;48.172;12.824;2023-06-10T05:09:42;12.47;;;11.33;;
3771;SDS011;1901;48.172;12.824;2023-06-10T05:12:10;11.73;;;9.73;;
3771;SDS011;1901;48.172;12.824;2023-06-10T05:14:37;11.83;;;10.77;;
3771;SDS011;1901;48.172;12.824;2023-06-10T05:17:04;9.80;;;9.00;;
3771;SDS011;1901;48.172;12.824;2023-06-10T05:19:32;9.30;;;8.23;;
3771;SDS011;1901;48.172;12.824;2023-06-10T05:22:00;8.20;;;7.53;;
3771;SDS011;1901;48.172;12.824;2023-06-10T05:24:29;9.23;;;8.40;;
3771;SDS011;1901;48.172;12.824;2023-06-10T05:26:56;8.27;;;7.47;;
3771;SDS011;1901;48.172;12.824;2023-06-10T05:29:23;9.20;;;8.30;;
3771;SDS011;1901;48.172;12.824;2023-06-10T05:31:50;8.07;;;7.37;;
3771;SDS011;1901;48.172;12.824;2023-06-10T05:34:17;9.00;;;8.20;;
3771;SDS011;1901;48.172;12.824;2023-06-10T05:36:44;11.10;;;8.23;;
3771;SDS011;1901;48.172;12.824;2023-06-10T05:39:12;9.53;;;8.63;;
3771;SDS011;1901;48.172;12.824;2023-06-10T05:41:40;9.70;;;8.73;;
3771;SDS011;1901;48.172;12.824;2023-06-10T05:44:07;9.10;;;8.20;;
3771;SDS011;1901;48.172;12.824;2023-06-10T05:46:34;8.13;;;7.33;;
3771;SDS011;1901;48.172;12.824;2023-06-10T05:49:01;10.43;;;8.00;;
3771;SDS011;1901;48.172;12.824;2023-06-10T05:51:29;8.70;;;7.80;;
3771;SDS011;1901;48.172;12.824;2023-06-10T05:53:56;7.60;;;7.00;;
3771;SDS011;1901;48.172;12.824;2023-06-10T05:56:23;9.03;;;8.17;;
3771;SDS011;1901;48.172;12.824;2023-06-10T05:58:52;8.27;;;7.43;;
3771;SDS011;1901;48.172;12.824;2023-06-10T06:01:19;7.60;;;6.90;;
3771;SDS011;1901;48.172;12.824;2023-06-10T06:03:46;7.10;;;6.40;;
3771;SDS011;1901;48.172;12.824;2023-06-10T06:06:13;7.60;;;7.00;;
3771;SDS011;1901;48.172;12.824;2023-06-10T06:08:40;7.37;;;6.77;;
3771;SDS011;1901;48.172;12.824;2023-06-10T06:11:07;6.50;;;5.93;;
3771;SDS011;1901;48.172;12.824;2023-06-10T06:13:34;6.60;;;6.00;;
3771;SDS011;1901;48.172;12.824;2023-06-10T06:16:03;7.90;;;6.83;;
3771;SDS011;1901;48.172;12.824;2023-06-10T06:18:30;6.63;;;6.07;;
3771;SDS011;1901;48.172;12.824;2023-06-10T06:20:57;6.50;;;6.00;;
3771;SDS011;1901;48.172;12.824;2023-06-10T06:23:24;6.23;;;5.63;;
3771;SDS011;1901;48.172;12.824;2023-06-10T06:25:51;6.60;;;5.37;;
3771;SDS011;1901;48.172;12.824;2023-06-10T06:28:19;6.40;;;5.90;;
3771;SDS011;1901;48.172;12.824;2023-06-10T06:30:47;5.43;;;5.00;;
3771;SDS011;1901;48.172;12.824;2023-06-10T06:33:15;6.00;;;5.40;;
3771;SDS011;1901;48.172;12.824;2023-06-10T06:35:42;5.83;;;5.33;;
3771;SDS011;1901;48.172;12.824;2023-06-10T06:38:09;5.50;;;5.00;;
3771;SDS011;1901;48.172;12.824;2023-06-10T06:40:37;6.37;;;5.77;;
3771;SDS011;1901;48.172;12.824;2023-06-10T06:43:04;7.87;;;5.07;;
3771;SDS011;1901;48.172;12.824;2023-06-10T06:45:31;7.37;;;5.30;;
3771;SDS011;1901;48.172;12.824;2023-06-10T06:47:59;5.93;;;5.50;;
3771;SDS011;1901;48.172;12.824;2023-06-10T06:50:27;5.83;;;5.23;;
3771;SDS011;1901;48.172;12.824;2023-06-10T06:52:54;7.70;;;5.20;;
3771;SDS011;1901;48.172;12.824;2023-06-10T06:55:21;5.53;;;5.03;;
3771;SDS011;1901;48.172;12.824;2023-06-10T06:57:48;4.80;;;4.40;;
3771;SDS011;1901;48.172;12.824;2023-06-10T07:00:16;5.50;;;5.10;;
3771;SDS011;1901;48.172;12.824;2023-06-10T07:02:43;5.83;;;5.43;;
3771;SDS011;1901;48.172;12.824;2023-06-10T07:05:10;4.97;;;4.57;;
3771;SDS011;1901;48.172;12.824;2023-06-10T07:07:38;5.40;;;4.97;;
3771;SDS011;1901;48.172;12.824;2023-06-10T07:10:06;6.20;;;5.23;;
3771;SDS011;1901;48.172;12.824;2023-06-10T07:12:33;4.20;;;3.77;;
3771;SDS011;1901;48.172;12.824;2023-06-10T07:15:00;5.97;;;5.47;;
3771;SDS011;1901;48.172;12.824;2023-06-10T07:17:27;4.80;;;4.40;;
3771;SDS011;1901;48.172;12.824;2023-06-10T07:19:55;5.23;;;4.73;;
3771;SDS011;1901;48.172;12.824;2023-06-10T07:22:22;5.30;;;4.90;;
3771;SDS011;1901;48.172;12.824;2023-06-10T07:24:51;5.33;;;4.93;;
3771;SDS011;1901;48.172;12.824;2023-06-10T07:27:19;5.20;;;4.70;;
3771;SDS011;1901;48.172;12.824;2023-06-10T07:29:46;4.83;;;4.30;;
3771;SDS011;1901;48.172;12.824;2023-06-10T07:32:14;4.30;;;3.90;;
3771;SDS011;1901;48.172;12.824;2023-06-10T07:34:41;4.67;;;4.37;;
3771;SDS011;1901;48.172;12.824;2023-06-10T07:37:08;4.17;;;3.87;;
3771;SDS011;1901;48.172;12.824;2023-06-10T07:39:35;5.27;;;4.87;;
3771;SDS011;1901;48.172;12.824;2023-06-10T07:42:04;5.70;;;5.20;;
3771;SDS011;1901;48.172;12.824;2023-06-10T07:44:31;4.90;;;4.50;;
3771;SDS011;1901;48.172;12.824;2023-06-10T07:46:58;5.07;;;4.67;;
3771;SDS011;1901;48.172;12.824;2023-06-10T07:49:25;5.50;;;5.10;;
3771;SDS011;1901;48.172;12.824;2023-06-10T07:51:53;5.33;;;4.93;;
3771;SDS011;1901;48.172;12.824;2023-06-10T07:54:20;5.30;;;4.87;;
3771;SDS011;1901;48.172;12.824;2023-06-10T07:56:48;5.43;;;5.03;;
3771;SDS011;1901;48.172;12.824;2023-06-10T07:59:18;5.00;;;4.60;;
3771;SDS011;1901;48.172;12.824;2023-06-10T08:01:45;5.03;;;4.57;;
3771;SDS011;1901;48.172;12.824;2023-06-10T08:04:12;4.80;;;4.40;;
3771;SDS011;1901;48.172;12.824;2023-06-10T08:06:39;4.30;;;4.00;;
3771;SDS011;1901;48.172;12.824;2023-06-10T08:09:07;5.83;;;5.37;;
3771;SDS011;1901;48.172;12.824;2023-06-10T08:11:34;4.40;;;4.10;;
3771;SDS011;1901;48.172;12.824;2023-06-10T08:14:01;5.67;;;5.20;;
3771;SDS011;1901;48.172;12.824;2023-06-10T08:16:29;6.90;;;4.70;;
3771;SDS011;1901;48.172;12.824;2023-06-10T08:18:56;5.83;;;5.30;;
3771;SDS011;1901;48.172;12.824;2023-06-10T08:21:23;9.50;;;4.53;;
3771;SDS011;1901;48.172;12.824;2023-06-10T08:23:52;3.97;;;3.67;;
3771;SDS011;1901;48.172;12.824;2023-06-10T08:26:19;6.40;;;5.80;;
3771;SDS011;1901;48.172;12.824;2023-06-10T08:28:47;6.40;;;5.90;;
3771;SDS011;1901;48.172;12.824;2023-06-10T08:31:14;14.93;;;6.10;;
3771;SDS011;1901;48.172;12.824;2023-06-10T08:33:42;5.93;;;5.43;;
3771;SDS011;1901;48.172;12.824;2023-06-10T08:36:09;8.80;;;6.50;;
3771;SDS011;1901;48.172;12.824;2023-06-10T08:38:37;7.53;;;6.83;;
3771;SDS011;1901;48.172;12.824;2023-06-10T08:41:05;8.40;;;7.70;;
3771;SDS011;1901;48.172;12.824;2023-06-10T08:43:33;7.17;;;6.47;;
3771;SDS011;1901;48.172;12.824;2023-06-10T08:46:03;11.00;;;6.77;;
3771;SDS011;1901;48.172;12.824;2023-06-10T08:48:30;7.13;;;6.50;;
3771;SDS011;1901;48.172;12.824;2023-06-10T08:50:59;7.70;;;6.90;;
3771;SDS011;1901;48.172;12.824;2023-06-10T08:53:26;7.23;;;6.10;;
3771;SDS011;1901;48.172;12.824;2023-06-10T08:55:54;6.90;;;6.17;;
3771;SDS011;1901;48.172;12.824;2023-06-10T08:58:24;10.57;;;8.40;;
3771;SDS011;1901;48.172;12.824;2023-06-10T09:00:51;8.17;;;7.33;;
3771;SDS011;1901;48.172;12.824;2023-06-10T09:03:19;8.43;;;7.73;;
3771;SDS011;1901;48.172;12.824;2023-06-10T09:05:46;8.50;;;7.33;;
3771;SDS011;1901;48.172;12.824;2023-06-10T09:08:15;7.47;;;6.80;;
3771;SDS011;1901;48.172;12.824;2023-06-10T09:10:42;6.90;;;6.20;;
3771;SDS011;1901;48.172;12.824;2023-06-10T09:13:09;7.50;;;6.80;;
3771;SDS011;1901;48.172;12.824;2023-06-10T09:15:36;7.80;;;7.10;;
3771;SDS011;1901;48.172;12.824;2023-06-10T09:18:05;7.13;;;6.43;;
3771;SDS011;1901;48.172;12.824;2023-06-10T09:20:32;8.37;;;7.57;;
3771;SDS011;1901;48.172;12.824;2023-06-10T09:22:59;8.60;;;7.70;;
3771;SDS011;1901;48.172;12.824;2023-06-10T09:25:35;7.63;;;6.93;;
3771;SDS011;1901;48.172;12.824;2023-06-10T09:28:03;8.07;;;7.37;;
3771;SDS011;1901;48.172;12.824;2023-06-10T09:30:31;7.47;;;6.87;;
3771;SDS011;1901;48.172;12.824;2023-06-10T09:33:00;7.10;;;6.10;;
3771;SDS011;1901;48.172;12.824;2023-06-10T09:35:29;7.20;;;6.23;;
3771;SDS011;1901;48.172;12.824;2023-06-10T09:37:57;8.33;;;7.50;;
3771;SDS011;1901;48.172;12.824;2023-06-10T09:40:25;7.23;;;6.60;;
3771;SDS011;1901;48.172;12.824;2023-06-10T09:42:54;7.40;;;6.80;;
3771;SDS011;1901;48.172;12.824;2023-06-10T09:45:22;7.17;;;6.47;;
3771;SDS011;1901;48.172;12.824;2023-06-10T09:47:51;6.73;;;6.13;;
3771;SDS011;1901;48.172;12.824;2023-06-10T09:50:18;7.20;;;6.60;;
3771;SDS011;1901;48.172;12.824;2023-06-10T09:52:46;6.93;;;6.23;;
3771;SDS011;1901;48.172;12.824;2023-06-10T09:55:14;8.00;;;7.30;;
3771;SDS011;1901;48.172;12.824;2023-06-10T09:57:41;7.90;;;7.20;;
3771;SDS011;1901;48.172;12.824;2023-06-10T10:00:14;7.57;;;6.90;;
3771;SDS011;1901;48.172;12.824;2023-06-10T10:02:45;7.67;;;6.97;;
3771;SDS011;1901;48.172;12.824;2023-06-10T10:05:13;7.30;;;6.70;;
3771;SDS011;1901;48.172;12.824;2023-06-10T10:07:41;8.23;;;7.50;;
3771;SDS011;1901;48.172;12.824;2023-06-10T10:10:08;7.03;;;6.43;;
3771;SDS011;1901;48.172;12.824;2023-06-10T10:12:36;10.27;;;6.40;;
3771;SDS011;1901;48.172;12.824;2023-06-10T10:15:03;6.83;;;6.23;;
3771;SDS011;1901;48.172;12.824;2023-06-10T10:17:34;6.60;;;6.00;;
3771;SDS011;1901;48.172;12.824;2023-06-10T10:20:05;5.77;;;5.27;;
3771;SDS011;1901;48.172;12.824;2023-06-10T10:22:39;5.60;;;5.10;;
3771;SDS011;1901;48.172;12.824;2023-06-10T10:25:08;7.37;;;6.77;;
3771;SDS011;1901;48.172;12.824;2023-06-10T10:27:39;6.70;;;6.03;;
3771;SDS011;1901;48.172;12.824;2023-06-10T10:30:07;7.13;;;6.43;;
3771;SDS011;1901;48.172;12.824;2023-06-10T10:32:38;7.10;;;6.50;;
3771;SDS011;1901;48.172;12.824;2023-06-10T10:35:08;6.87;;;6.13;;
3771;SDS011;1901;48.172;12.824;2023-06-10T10:37:35;9.10;;;6.73;;
3771;SDS011;1901;48.172;12.824;2023-06-10T10:40:03;7.33;;;6.63;;
3771;SDS011;1901;48.172;12.824;2023-06-10T10:42:31;6.00;;;5.40;;
3771;SDS011;1901;48.172;12.824;2023-06-10T10:45:00;6.57;;;5.97;;
3771;SDS011;1901;48.172;12.824;2023-06-10T10:47:28;7.20;;;6.50;;
3771;SDS011;1901;48.172;12.824;2023-06-10T10:49:58;7.47;;;6.87;;
3771;SDS011;1901;48.172;12.824;2023-06-10T10:52:27;9.23;;;7.20;;
3771;SDS011;1901;48.172;12.824;2023-06-10T10:55:12;8.17;;;7.43;;
3771;SDS011;1901;48.172;12.824;2023-06-10T10:57:40;8.27;;;7.40;;
3771;SDS011;1901;48.172;12.824;2023-06-10T11:00:07;7.60;;;6.60;;
3771;SDS011;1901;48.172;12.824;2023-06-10T11:02:37;7.70;;;6.97;;
3771;SDS011;1901;48.172;12.824;2023-06-10T11:05:10;6.93;;;6.23;;
3771;SDS011;1901;48.172;12.824;2023-06-10T11:07:38;6.90;;;6.30;;
3771;SDS011;1901;48.172;12.824;2023-06-10T11:10:06;11.17;;;7.23;;
3771;SDS011;1901;48.172;12.824;2023-06-10T11:12:40;7.03;;;6.33;;
3771;SDS011;1901;48.172;12.824;2023-06-10T11:15:08;7.87;;;7.17;;
3771;SDS011;1901;48.172;12.824;2023-06-10T11:17:35;7.47;;;6.70;;
3771;SDS011;1901;48.172;12.824;2023-06-10T11:20:02;8.00;;;7.23;;
3771;SDS011;1901;48.172;12.824;2023-06-10T11:22:31;7.43;;;6.83;;
3771;SDS011;1901;48.172;12.824;2023-06-10T11:24:59;7.30;;;6.60;;
3771;SDS011;1901;48.172;12.824;2023-06-10T11:27:26;6.57;;;6.00;;
3771;SDS011;1901;48.172;12.824;2023-06-10T11:30:18;7.23;;;6.60;;
3771;SDS011;1901;48.172;12.824;2023-06-10T11:32:48;7.53;;;6.83;;
3771;SDS011;1901;48.172;12.824;2023-06-10T11:35:18;6.83;;;6.23;;
3771;SDS011;1901;48.172;12.824;2023-06-10T11:37:46;7.50;;;6.80;;
3771;SDS011;1901;48.172;12.824;2023-06-10T11:40:14;6.30;;;5.80;;
3771;SDS011;1901;48.172;12.824;2023-06-10T11:42:42;7.27;;;6.67;;
3771;SDS011;1901;48.172;12.824;2023-06-10T11:45:09;6.53;;;5.93;;
3771;SDS011;1901;48.172;12.824;2023-06-10T11:47:36;12.40;;;7.03;;
3771;SDS011;1901;48.172;12.824;2023-06-10T11:50:04;8.30;;;6.23;;
3771;SDS011;1901;48.172;12.824;2023-06-10T11:52:31;7.30;;;6.40;;
3771;SDS011;1901;48.172;12.824;2023-06-10T11:55:04;7.90;;;5.90;;
3771;SDS011;1901;48.172;12.824;2023-06-10T11:57:33;11.87;;;6.60;;
3771;SDS011;1901;48.172;12.824;2023-06-10T12:00:03;6.00;;;5.50;;
3771;SDS011;1901;48.172;12.824;2023-06-10T12:02:30;7.20;;;6.50;;
3771;SDS011;1901;48.172;12.824;2023-06-10T12:05:09;6.97;;;6.37;;
3771;SDS011;1901;48.172;12.824;2023-06-10T12:07:36;7.00;;;6.40;;
3771;SDS011;1901;48.172;12.824;2023-06-10T12:10:05;7.13;;;6.43;;
3771;SDS011;1901;48.172;12.824;2023-06-10T12:12:34;6.43;;;5.93;;
3771;SDS011;1901;48.172;12.824;2023-06-10T12:15:02;7.60;;;6.90;;
3771;SDS011;1901;48.172;12.824;2023-06-10T12:17:37;8.23;;;5.97;;
3771;SDS011;1901;48.172;12.824;2023-06-10T12:20:05;5.53;;;4.60;;
3771;SDS011;1901;48.172;12.824;2023-06-10T12:22:36;5.67;;;5.13;;
3771;SDS011;1901;48.172;12.824;2023-06-10T12:25:05;5.87;;;5.37;;
3771;SDS011;1901;48.172;12.824;2023-06-10T12:27:33;6.60;;;6.00;;
3771;SDS011;1901;48.172;12.824;2023-06-10T12:30:00;6.07;;;5.50;;
3771;SDS011;1901;48.172;12.824;2023-06-10T12:32:36;6.97;;;6.27;;
3771;SDS011;1901;48.172;12.824;2023-06-10T12:35:04;6.83;;;5.47;;
3771;SDS011;1901;48.172;12.824;2023-06-10T12:37:31;7.20;;;6.50;;
3771;SDS011;1901;48.172;12.824;2023-06-10T12:39:59;7.50;;;6.50;;
3771;SDS011;1901;48.172;12.824;2023-06-10T12:42:29;6.53;;;5.97;;
3771;SDS011;1901;48.172;12.824;2023-06-10T12:44:56;6.63;;;6.03;;
3771;SDS011;1901;48.172;12.824;2023-06-10T12:47:29;7.47;;;6.67;;
3771;SDS011;1901;48.172;12.824;2023-06-10T12:49:57;6.97;;;6.37;;
3771;SDS011;1901;48.172;12.824;2023-06-10T12:52:24;6.37;;;5.83;;
3771;SDS011;1901;48.172;12.824;2023-06-10T12:54:52;6.67;;;6.07;;
3771;SDS011;1901;48.172;12.824;2023-06-10T12:57:19;5.10;;;4.70;;
3771;SDS011;1901;48.172;12.824;2023-06-10T12:59:48;6.33;;;5.83;;
3771;SDS011;1901;48.172;12.824;2023-06-10T13:02:18;7.10;;;6.50;;
3771;SDS011;1901;48.172;12.824;2023-06-10T13:04:49;6.80;;;6.20;;
3771;SDS011;1901;48.172;12.824;2023-06-10T13:07:17;6.13;;;5.60;;
3771;SDS011;1901;48.172;12.824;2023-06-10T13:09:44;5.93;;;5.43;;
3771;SDS011;1901;48.172;12.824;2023-06-10T13:12:13;6.60;;;6.00;;
3771;SDS011;1901;48.172;12.824;2023-06-10T13:14:42;7.27;;;6.67;;
3771;SDS011;1901;48.172;12.824;2023-06-10T13:17:11;6.30;;;5.70;;
3771;SDS011;1901;48.172;12.824;2023-06-10T13:19:38;6.93;;;6.23;;
3771;SDS011;1901;48.172;12.824;2023-06-10T13:22:05;11.53;;;8.20;;
3771;SDS011;1901;48.172;12.824;2023-06-10T13:24:35;8.20;;;6.77;;
3771;SDS011;1901;48.172;12.824;2023-06-10T13:27:06;8.70;;;7.90;;
3771;SDS011;1901;48.172;12.824;2023-06-10T13:29:33;7.47;;;6.77;;
3771;SDS011;1901;48.172;12.824;2023-06-10T13:32:00;7.97;;;6.63;;
3771;SDS011;1901;48.172;12.824;2023-06-10T13:34:29;7.77;;;6.97;;
3771;SDS011;1901;48.172;12.824;2023-06-10T13:36:56;12.00;;;6.83;;
3771;SDS011;1901;48.172;12.824;2023-06-10T13:39:23;6.20;;;5.40;;
3771;SDS011;1901;48.172;12.824;2023-06-10T13:41:50;6.90;;;5.23;;
3771;SDS011;1901;48.172;12.824;2023-06-10T13:44:18;5.67;;;5.13;;
3771;SDS011;1901;48.172;12.824;2023-06-10T13:46:45;6.93;;;6.23;;
3771;SDS011;1901;48.172;12.824;2023-06-10T13:49:12;6.90;;;4.93;;
3771;SDS011;1901;48.172;12.824;2023-06-10T13:51:40;6.37;;;5.50;;
3771;SDS011;1901;48.172;12.824;2023-06-10T13:54:07;7.37;;;5.83;;
3771;SDS011;1901;48.172;12.824;2023-06-10T13:56:35;4.80;;;4.40;;
3771;SDS011;1901;48.172;12.824;2023-06-10T13:59:03;5.03;;;4.53;;
3771;SDS011;1901;48.172;12.824;2023-06-10T14:01:30;4.90;;;4.33;;
3771;SDS011;1901;48.172;12.824;2023-06-10T14:03:58;6.60;;;4.83;;
3771;SDS011;1901;48.172;12.824;2023-06-10T14:06:25;7.27;;;5.13;;
3771;SDS011;1901;48.172;12.824;2023-06-10T14:08:54;7.03;;;6.33;;
3771;SDS011;1901;48.172;12.824;2023-06-10T14:11:21;5.73;;;4.93;;
3771;SDS011;1901;48.172;12.824;2023-06-10T14:13:48;4.70;;;4.30;;
3771;SDS011;1901;48.172;12.824;2023-06-10T14:16:15;4.70;;;4.20;;
3771;SDS011;1901;48.172;12.824;2023-06-10T14:18:42;5.20;;;4.70;;
3771;SDS011;1901;48.172;12.824;2023-06-10T14:21:09;4.53;;;4.13;;
3771;SDS011;1901;48.172;12.824;2023-06-10T14:23:37;4.30;;;3.90;;
3771;SDS011;1901;48.172;12.824;2023-06-10T14:26:05;3.67;;;3.37;;
3771;SDS011;1901;48.172;12.824;2023-06-10T14:28:32;4.67;;;4.27;;
3771;SDS011;1901;48.172;12.824;2023-06-10T14:30:59;4.63;;;4.23;;
3771;SDS011;1901;48.172;12.824;2023-06-10T14:33:27;4.67;;;4.27;;
3771;SDS011;1901;48.172;12.824;2023-06-10T14:35:56;5.70;;;5.20;;
3771;SDS011;1901;48.172;12.824;2023-06-10T14:38:23;4.93;;;4.53;;
3771;SDS011;1901;48.172;12.824;2023-06-10T14:40:51;4.93;;;4.53;;
3771;SDS011;1901;48.172;12.824;2023-06-10T14:43:20;5.50;;;4.50;;
3771;SDS011;1901;48.172;12.824;2023-06-10T14:45:47;5.10;;;4.40;;
3771;SDS011;1901;48.172;12.824;2023-06-10T14:48:16;4.90;;;4.47;;
3771;SDS011;1901;48.172;12.824;2023-06-10T14:50:43;6.13;;;4.53;;
3771;SDS011;1901;48.172;12.824;2023-06-10T14:53:15;5.83;;;5.27;;
3771;SDS011;1901;48.172;12.824;2023-06-10T14:55:43;5.67;;;5.17;;
3771;SDS011;1901;48.172;12.824;2023-06-10T14:58:10;5.57;;;5.10;;